sensor_id;sensor_type;location;lat;lon;timestamp;P1;durP1;ratioP1;P2;durP2;ratioP2
3891;SDS011;1961;48.194;16.370;2023-06-22T00:00:50;52.10;;;9.50;;
3891;SDS011;1961;48.194;16.370;2023-06-22T00:03:17;49.97;;;9.80;;
3891;SDS011;1961;48.194;16.370;2023-06-22T00:05:44;50.97;;;10.03;;
3891;SDS011;1961;48.194;16.370;2023-06-22T00:08:11;47.67;;;8.90;;
3891;SDS011;1961;48.194;16.370;2023-06-22T00:10:37;47.20;;;9.43;;
3891;SDS011;1961;48.194;16.370;2023-06-22T00:13:04;59.13;;;10.23;;
3891;SDS011;1961;48.194;16.370;2023-06-22T00:15:31;47.67;;;9.47;;
3891;SDS011;1961;48.194;16.370;2023-06-22T00:17:57;46.70;;;9.13;;
3891;SDS011;1961;48.194;16.370;2023-06-22T00:20:24;49.37;;;9.60;;
3891;SDS011;1961;48.194;16.370;2023-06-22T00:22:53;47.17;;;9.00;;
3891;SDS011;1961;48.194;16.370;2023-06-22T00:25:20;52.03;;;8.70;;
3891;SDS011;1961;48.194;16.370;2023-06-22T00:27:47;51.83;;;8.83;;
3891;SDS011;1961;48.194;16.370;2023-06-22T00:30:13;48.43;;;9.47;;
3891;SDS011;1961;48.194;16.370;2023-06-22T00:32:40;54.20;;;9.30;;
3891;SDS011;1961;48.194;16.370;2023-06-22T00:35:06;50.63;;;8.83;;
3891;SDS011;1961;48.194;16.370;2023-06-22T00:37:34;48.20;;;8.33;;
3891;SDS011;1961;48.194;16.370;2023-06-22T00:40:01;49.60;;;8.30;;
3891;SDS011;1961;48.194;16.370;2023-06-22T00:42:28;50.80;;;9.00;;
3891;SDS011;1961;48.194;16.370;2023-06-22T00:44:54;46.77;;;8.97;;
3891;SDS011;1961;48.194;16.370;2023-06-22T00:47:20;50.83;;;9.80;;
3891;SDS011;1961;48.194;16.370;2023-06-22T00:49:47;49.73;;;8.87;;
3891;SDS011;1961;48.194;16.370;2023-06-22T00:52:19;49.40;;;9.73;;
3891;SDS011;1961;48.194;16.370;2023-06-22T00:54:50;46.57;;;9.00;;
3891;SDS011;1961;48.194;16.370;2023-06-22T00:57:16;46.67;;;8.33;;
3891;SDS011;1961;48.194;16.370;2023-06-22T00:59:43;51.70;;;9.53;;
3891;SDS011;1961;48.194;16.370;2023-06-22T01:02:10;49.70;;;8.20;;
3891;SDS011;1961;48.194;16.370;2023-06-22T01:04:37;48.80;;;8.90;;
3891;SDS011;1961;48.194;16.370;2023-06-22T01:09:32;52.83;;;8.90;;
3891;SDS011;1961;48.194;16.370;2023-06-22T01:12:01;46.10;;;8.03;;
3891;SDS011;1961;48.194;16.370;2023-06-22T01:14:30;47.37;;;8.13;;
3891;SDS011;1961;48.194;16.370;2023-06-22T01:16:58;51.13;;;8.63;;
3891;SDS011;1961;48.194;16.370;2023-06-22T01:19:35;47.00;;;9.00;;
3891;SDS011;1961;48.194;16.370;2023-06-22T01:22:05;46.90;;;8.33;;
3891;SDS011;1961;48.194;16.370;2023-06-22T01:29:52;48.80;;;8.30;;
3891;SDS011;1961;48.194;16.370;2023-06-22T01:32:33;45.80;;;8.03;;
3891;SDS011;1961;48.194;16.370;2023-06-22T01:35:00;46.57;;;8.40;;
3891;SDS011;1961;48.194;16.370;2023-06-22T01:37:27;46.20;;;8.83;;
3891;SDS011;1961;48.194;16.370;2023-06-22T01:39:54;51.37;;;8.67;;
3891;SDS011;1961;48.194;16.370;2023-06-22T01:42:22;46.70;;;7.87;;
3891;SDS011;1961;48.194;16.370;2023-06-22T01:44:49;48.67;;;8.53;;
3891;SDS011;1961;48.194;16.370;2023-06-22T01:47:16;47.87;;;8.40;;
3891;SDS011;1961;48.194;16.370;2023-06-22T01:49:42;47.10;;;8.73;;
3891;SDS011;1961;48.194;16.370;2023-06-22T01:52:09;46.50;;;8.13;;
3891;SDS011;1961;48.194;16.370;2023-06-22T01:54:37;47.87;;;7.73;;
3891;SDS011;1961;48.194;16.370;2023-06-22T01:57:04;46.27;;;8.50;;
3891;SDS011;1961;48.194;16.370;2023-06-22T02:02:06;49.70;;;9.10;;
3891;SDS011;1961;48.194;16.370;2023-06-22T02:04:38;46.60;;;8.40;;
3891;SDS011;1961;48.194;16.370;2023-06-22T02:07:09;47.30;;;9.27;;
3891;SDS011;1961;48.194;16.370;2023-06-22T02:09:37;48.57;;;9.03;;
3891;SDS011;1961;48.194;16.370;2023-06-22T02:12:04;50.73;;;8.77;;
3891;SDS011;1961;48.194;16.370;2023-06-22T02:14:31;46.30;;;8.07;;
3891;SDS011;1961;48.194;16.370;2023-06-22T02:16:57;50.33;;;8.90;;
3891;SDS011;1961;48.194;16.370;2023-06-22T02:19:26;48.83;;;8.70;;
3891;SDS011;1961;48.194;16.370;2023-06-22T02:21:53;47.07;;;8.90;;
3891;SDS011;1961;48.194;16.370;2023-06-22T02:24:19;48.33;;;9.53;;
3891;SDS011;1961;48.194;16.370;2023-06-22T02:26:49;49.23;;;8.87;;
3891;SDS011;1961;48.194;16.370;2023-06-22T02:29:15;47.40;;;10.10;;
3891;SDS011;1961;48.194;16.370;2023-06-22T02:31:41;47.43;;;8.80;;
3891;SDS011;1961;48.194;16.370;2023-06-22T02:34:07;48.77;;;8.90;;
3891;SDS011;1961;48.194;16.370;2023-06-22T02:36:34;48.47;;;9.00;;
3891;SDS011;1961;48.194;16.370;2023-06-22T02:39:03;49.27;;;8.50;;
3891;SDS011;1961;48.194;16.370;2023-06-22T02:41:29;46.03;;;8.20;;
3891;SDS011;1961;48.194;16.370;2023-06-22T02:43:55;48.47;;;8.40;;
3891;SDS011;1961;48.194;16.370;2023-06-22T02:46:21;48.20;;;9.30;;
3891;SDS011;1961;48.194;16.370;2023-06-22T02:48:47;48.20;;;8.80;;
3891;SDS011;1961;48.194;16.370;2023-06-22T02:51:14;48.83;;;8.60;;
3891;SDS011;1961;48.194;16.370;2023-06-22T02:53:40;49.33;;;9.00;;
3891;SDS011;1961;48.194;16.370;2023-06-22T02:56:09;44.73;;;7.63;;
3891;SDS011;1961;48.194;16.370;2023-06-22T02:58:36;46.63;;;8.80;;
3891;SDS011;1961;48.194;16.370;2023-06-22T03:01:04;46.50;;;8.73;;
3891;SDS011;1961;48.194;16.370;2023-06-22T03:03:31;47.80;;;9.00;;
3891;SDS011;1961;48.194;16.370;2023-06-22T03:05:57;49.07;;;8.73;;
3891;SDS011;1961;48.194;16.370;2023-06-22T03:08:25;47.93;;;8.40;;
3891;SDS011;1961;48.194;16.370;2023-06-22T03:10:52;45.47;;;8.90;;
3891;SDS011;1961;48.194;16.370;2023-06-22T03:13:18;49.33;;;8.63;;
3891;SDS011;1961;48.194;16.370;2023-06-22T03:15:44;46.30;;;8.80;;
3891;SDS011;1961;48.194;16.370;2023-06-22T03:18:11;48.20;;;9.43;;
3891;SDS011;1961;48.194;16.370;2023-06-22T03:20:38;47.57;;;8.40;;
3891;SDS011;1961;48.194;16.370;2023-06-22T03:23:04;49.17;;;8.80;;
3891;SDS011;1961;48.194;16.370;2023-06-22T03:25:30;55.40;;;9.77;;
3891;SDS011;1961;48.194;16.370;2023-06-22T03:27:58;45.60;;;8.57;;
3891;SDS011;1961;48.194;16.370;2023-06-22T03:30:25;47.40;;;8.97;;
3891;SDS011;1961;48.194;16.370;2023-06-22T03:32:51;48.07;;;8.77;;
3891;SDS011;1961;48.194;16.370;2023-06-22T03:35:18;45.40;;;8.20;;
3891;SDS011;1961;48.194;16.370;2023-06-22T03:37:44;47.17;;;9.03;;
3891;SDS011;1961;48.194;16.370;2023-06-22T03:40:11;47.13;;;8.97;;
3891;SDS011;1961;48.194;16.370;2023-06-22T03:42:37;46.47;;;9.00;;
3891;SDS011;1961;48.194;16.370;2023-06-22T03:45:03;45.07;;;9.00;;
3891;SDS011;1961;48.194;16.370;2023-06-22T03:47:30;49.63;;;9.40;;
3891;SDS011;1961;48.194;16.370;2023-06-22T03:49:56;48.23;;;8.30;;
3891;SDS011;1961;48.194;16.370;2023-06-22T03:52:22;49.93;;;8.70;;
3891;SDS011;1961;48.194;16.370;2023-06-22T03:54:50;46.50;;;9.80;;
3891;SDS011;1961;48.194;16.370;2023-06-22T03:57:16;44.87;;;8.60;;
3891;SDS011;1961;48.194;16.370;2023-06-22T03:59:42;46.60;;;8.77;;
3891;SDS011;1961;48.194;16.370;2023-06-22T04:02:09;47.20;;;8.73;;
3891;SDS011;1961;48.194;16.370;2023-06-22T04:04:35;48.97;;;9.50;;
3891;SDS011;1961;48.194;16.370;2023-06-22T04:07:03;49.00;;;8.60;;
3891;SDS011;1961;48.194;16.370;2023-06-22T04:09:30;47.67;;;9.77;;
3891;SDS011;1961;48.194;16.370;2023-06-22T04:11:56;50.00;;;9.70;;
3891;SDS011;1961;48.194;16.370;2023-06-22T04:14:22;46.33;;;8.90;;
3891;SDS011;1961;48.194;16.370;2023-06-22T04:16:48;44.97;;;8.70;;
3891;SDS011;1961;48.194;16.370;2023-06-22T04:19:14;48.53;;;9.23;;
3891;SDS011;1961;48.194;16.370;2023-06-22T04:21:43;48.37;;;9.57;;
3891;SDS011;1961;48.194;16.370;2023-06-22T04:24:14;50.83;;;9.20;;
3891;SDS011;1961;48.194;16.370;2023-06-22T04:26:40;52.67;;;9.83;;
3891;SDS011;1961;48.194;16.370;2023-06-22T04:29:10;50.90;;;9.17;;
3891;SDS011;1961;48.194;16.370;2023-06-22T04:31:37;51.00;;;9.57;;
3891;SDS011;1961;48.194;16.370;2023-06-22T04:34:04;47.70;;;9.13;;
3891;SDS011;1961;48.194;16.370;2023-06-22T04:39:06;51.23;;;9.93;;
3891;SDS011;1961;48.194;16.370;2023-06-22T04:41:37;51.57;;;10.70;;
3891;SDS011;1961;48.194;16.370;2023-06-22T04:44:14;49.20;;;9.80;;
3891;SDS011;1961;48.194;16.370;2023-06-22T04:46:50;49.97;;;9.30;;
3891;SDS011;1961;48.194;16.370;2023-06-22T04:49:19;46.30;;;9.10;;
3891;SDS011;1961;48.194;16.370;2023-06-22T04:51:46;49.17;;;8.97;;
3891;SDS011;1961;48.194;16.370;2023-06-22T04:54:12;54.80;;;8.43;;
3891;SDS011;1961;48.194;16.370;2023-06-22T04:56:38;49.37;;;9.70;;
3891;SDS011;1961;48.194;16.370;2023-06-22T04:59:06;49.03;;;8.80;;
3891;SDS011;1961;48.194;16.370;2023-06-22T05:01:33;46.77;;;8.57;;
3891;SDS011;1961;48.194;16.370;2023-06-22T05:04:00;49.37;;;8.40;;
3891;SDS011;1961;48.194;16.370;2023-06-22T05:06:27;49.30;;;8.57;;
3891;SDS011;1961;48.194;16.370;2023-06-22T05:08:54;47.50;;;9.10;;
3891;SDS011;1961;48.194;16.370;2023-06-22T05:11:26;46.90;;;9.47;;
3891;SDS011;1961;48.194;16.370;2023-06-22T05:13:53;55.73;;;9.10;;
3891;SDS011;1961;48.194;16.370;2023-06-22T05:16:20;46.73;;;8.60;;
3891;SDS011;1961;48.194;16.370;2023-06-22T05:18:52;46.07;;;9.00;;
3891;SDS011;1961;48.194;16.370;2023-06-22T05:21:23;46.57;;;8.10;;
3891;SDS011;1961;48.194;16.370;2023-06-22T05:23:49;49.10;;;8.30;;
3891;SDS011;1961;48.194;16.370;2023-06-22T05:26:16;49.00;;;8.90;;
3891;SDS011;1961;48.194;16.370;2023-06-22T05:28:43;49.80;;;8.93;;
3891;SDS011;1961;48.194;16.370;2023-06-22T05:31:12;56.80;;;8.50;;
3891;SDS011;1961;48.194;16.370;2023-06-22T05:33:38;48.67;;;9.50;;
3891;SDS011;1961;48.194;16.370;2023-06-22T05:36:05;48.47;;;9.53;;
3891;SDS011;1961;48.194;16.370;2023-06-22T05:38:32;53.70;;;10.17;;
3891;SDS011;1961;48.194;16.370;2023-06-22T05:40:58;52.27;;;9.77;;
3891;SDS011;1961;48.194;16.370;2023-06-22T05:43:24;52.10;;;9.23;;
3891;SDS011;1961;48.194;16.370;2023-06-22T05:45:50;54.47;;;10.87;;
3891;SDS011;1961;48.194;16.370;2023-06-22T05:48:17;51.10;;;9.90;;
3891;SDS011;1961;48.194;16.370;2023-06-22T05:50:43;50.97;;;10.63;;
3891;SDS011;1961;48.194;16.370;2023-06-22T05:53:09;51.67;;;10.40;;
3891;SDS011;1961;48.194;16.370;2023-06-22T05:55:35;47.37;;;9.40;;
3891;SDS011;1961;48.194;16.370;2023-06-22T05:58:02;49.47;;;9.70;;
3891;SDS011;1961;48.194;16.370;2023-06-22T06:00:28;50.10;;;9.93;;
3891;SDS011;1961;48.194;16.370;2023-06-22T06:02:55;50.90;;;9.80;;
3891;SDS011;1961;48.194;16.370;2023-06-22T06:05:21;48.50;;;10.50;;
3891;SDS011;1961;48.194;16.370;2023-06-22T06:07:49;49.00;;;10.83;;
3891;SDS011;1961;48.194;16.370;2023-06-22T06:10:15;52.83;;;10.80;;
3891;SDS011;1961;48.194;16.370;2023-06-22T06:12:41;54.13;;;11.70;;
3891;SDS011;1961;48.194;16.370;2023-06-22T06:15:07;73.73;;;12.20;;
3891;SDS011;1961;48.194;16.370;2023-06-22T06:17:34;60.80;;;11.37;;
3891;SDS011;1961;48.194;16.370;2023-06-22T06:20:00;53.50;;;11.60;;
3891;SDS011;1961;48.194;16.370;2023-06-22T06:22:33;56.70;;;13.13;;
3891;SDS011;1961;48.194;16.370;2023-06-22T06:24:59;51.93;;;13.20;;
3891;SDS011;1961;48.194;16.370;2023-06-22T06:27:26;54.50;;;14.67;;
3891;SDS011;1961;48.194;16.370;2023-06-22T06:29:54;59.97;;;13.60;;
3891;SDS011;1961;48.194;16.370;2023-06-22T06:32:20;60.40;;;14.63;;
3891;SDS011;1961;48.194;16.370;2023-06-22T06:34:46;55.47;;;14.40;;
3891;SDS011;1961;48.194;16.370;2023-06-22T06:37:13;58.67;;;18.77;;
3891;SDS011;1961;48.194;16.370;2023-06-22T06:39:39;58.10;;;18.50;;
3891;SDS011;1961;48.194;16.370;2023-06-22T06:42:05;60.40;;;19.67;;
3891;SDS011;1961;48.194;16.370;2023-06-22T06:44:32;60.37;;;20.53;;
3891;SDS011;1961;48.194;16.370;2023-06-22T06:46:58;60.27;;;20.27;;
3891;SDS011;1961;48.194;16.370;2023-06-22T06:49:24;61.77;;;20.00;;
3891;SDS011;1961;48.194;16.370;2023-06-22T06:51:51;63.50;;;21.00;;
3891;SDS011;1961;48.194;16.370;2023-06-22T06:54:17;63.47;;;20.67;;
3891;SDS011;1961;48.194;16.370;2023-06-22T06:56:45;57.80;;;20.10;;
3891;SDS011;1961;48.194;16.370;2023-06-22T06:59:16;58.07;;;20.37;;
3891;SDS011;1961;48.194;16.370;2023-06-22T07:01:42;64.67;;;20.77;;
3891;SDS011;1961;48.194;16.370;2023-06-22T07:04:10;58.43;;;20.03;;
3891;SDS011;1961;48.194;16.370;2023-06-22T07:06:36;55.70;;;19.63;;
3891;SDS011;1961;48.194;16.370;2023-06-22T07:09:03;63.93;;;19.17;;
3891;SDS011;1961;48.194;16.370;2023-06-22T07:11:29;58.07;;;19.30;;
3891;SDS011;1961;48.194;16.370;2023-06-22T07:13:55;67.87;;;19.23;;
3891;SDS011;1961;48.194;16.370;2023-06-22T07:16:21;57.00;;;18.13;;
3891;SDS011;1961;48.194;16.370;2023-06-22T07:18:48;58.47;;;18.37;;
3891;SDS011;1961;48.194;16.370;2023-06-22T07:21:15;62.43;;;19.07;;
3891;SDS011;1961;48.194;16.370;2023-06-22T07:23:41;59.33;;;17.90;;
3891;SDS011;1961;48.194;16.370;2023-06-22T07:26:07;57.20;;;17.13;;
3891;SDS011;1961;48.194;16.370;2023-06-22T07:28:33;59.80;;;17.37;;
3891;SDS011;1961;48.194;16.370;2023-06-22T07:31:03;66.70;;;18.00;;
3891;SDS011;1961;48.194;16.370;2023-06-22T07:33:29;59.47;;;18.50;;
3891;SDS011;1961;48.194;16.370;2023-06-22T07:35:55;60.27;;;17.10;;
3891;SDS011;1961;48.194;16.370;2023-06-22T07:38:21;59.00;;;17.17;;
3891;SDS011;1961;48.194;16.370;2023-06-22T07:40:48;85.13;;;18.87;;
3891;SDS011;1961;48.194;16.370;2023-06-22T07:43:17;54.83;;;16.67;;
3891;SDS011;1961;48.194;16.370;2023-06-22T07:45:53;54.60;;;15.93;;
3891;SDS011;1961;48.194;16.370;2023-06-22T07:48:20;54.27;;;15.77;;
3891;SDS011;1961;48.194;16.370;2023-06-22T07:50:47;54.87;;;16.10;;
3891;SDS011;1961;48.194;16.370;2023-06-22T07:53:14;61.07;;;16.60;;
3891;SDS011;1961;48.194;16.370;2023-06-22T07:55:40;54.80;;;16.20;;
3891;SDS011;1961;48.194;16.370;2023-06-22T07:58:06;54.77;;;15.43;;
3891;SDS011;1961;48.194;16.370;2023-06-22T08:00:33;56.13;;;16.23;;
3891;SDS011;1961;48.194;16.370;2023-06-22T08:03:00;55.47;;;16.57;;
3891;SDS011;1961;48.194;16.370;2023-06-22T08:05:28;59.00;;;15.80;;
3891;SDS011;1961;48.194;16.370;2023-06-22T08:07:55;50.67;;;14.67;;
3891;SDS011;1961;48.194;16.370;2023-06-22T08:10:21;57.20;;;16.50;;
3891;SDS011;1961;48.194;16.370;2023-06-22T08:12:47;56.67;;;15.70;;
3891;SDS011;1961;48.194;16.370;2023-06-22T08:15:14;61.57;;;16.63;;
3891;SDS011;1961;48.194;16.370;2023-06-22T08:17:40;63.33;;;16.57;;
3891;SDS011;1961;48.194;16.370;2023-06-22T08:20:06;52.07;;;14.67;;
3891;SDS011;1961;48.194;16.370;2023-06-22T08:22:39;53.70;;;14.13;;
3891;SDS011;1961;48.194;16.370;2023-06-22T08:25:06;53.10;;;16.03;;
3891;SDS011;1961;48.194;16.370;2023-06-22T08:27:32;56.23;;;17.20;;
3891;SDS011;1961;48.194;16.370;2023-06-22T08:29:59;61.17;;;16.23;;
3891;SDS011;1961;48.194;16.370;2023-06-22T08:32:27;55.17;;;17.40;;
3891;SDS011;1961;48.194;16.370;2023-06-22T08:34:54;54.17;;;16.90;;
3891;SDS011;1961;48.194;16.370;2023-06-22T08:37:20;56.10;;;15.63;;
3891;SDS011;1961;48.194;16.370;2023-06-22T08:39:50;59.83;;;14.97;;
3891;SDS011;1961;48.194;16.370;2023-06-22T08:42:16;50.17;;;13.80;;
3891;SDS011;1961;48.194;16.370;2023-06-22T08:44:42;56.90;;;16.60;;
3891;SDS011;1961;48.194;16.370;2023-06-22T08:47:08;58.30;;;15.77;;
3891;SDS011;1961;48.194;16.370;2023-06-22T08:49:34;55.80;;;15.80;;
3891;SDS011;1961;48.194;16.370;2023-06-22T08:52:01;59.20;;;17.00;;
3891;SDS011;1961;48.194;16.370;2023-06-22T08:54:27;54.47;;;15.93;;
3891;SDS011;1961;48.194;16.370;2023-06-22T08:56:53;53.90;;;17.30;;
3891;SDS011;1961;48.194;16.370;2023-06-22T08:59:19;59.23;;;16.03;;
3891;SDS011;1961;48.194;16.370;2023-06-22T09:01:45;54.27;;;15.13;;
3891;SDS011;1961;48.194;16.370;2023-06-22T09:04:14;54.57;;;15.90;;
3891;SDS011;1961;48.194;16.370;2023-06-22T09:06:40;55.13;;;16.33;;
3891;SDS011;1961;48.194;16.370;2023-06-22T09:09:10;53.50;;;14.90;;
3891;SDS011;1961;48.194;16.370;2023-06-22T09:11:37;54.63;;;14.43;;
3891;SDS011;1961;48.194;16.370;2023-06-22T09:14:03;51.90;;;14.50;;
3891;SDS011;1961;48.194;16.370;2023-06-22T09:16:29;57.27;;;14.77;;
3891;SDS011;1961;48.194;16.370;2023-06-22T09:18:56;54.53;;;15.27;;
3891;SDS011;1961;48.194;16.370;2023-06-22T09:21:23;57.70;;;15.33;;
3891;SDS011;1961;48.194;16.370;2023-06-22T09:23:49;53.93;;;15.60;;
3891;SDS011;1961;48.194;16.370;2023-06-22T09:26:19;53.30;;;14.70;;
3891;SDS011;1961;48.194;16.370;2023-06-22T09:28:45;53.57;;;14.57;;
3891;SDS011;1961;48.194;16.370;2023-06-22T09:31:12;54.07;;;14.67;;
3891;SDS011;1961;48.194;16.370;2023-06-22T09:33:39;51.43;;;14.63;;
3891;SDS011;1961;48.194;16.370;2023-06-22T09:36:06;55.93;;;14.20;;
3891;SDS011;1961;48.194;16.370;2023-06-22T09:38:38;58.00;;;14.63;;
3891;SDS011;1961;48.194;16.370;2023-06-22T09:41:04;54.00;;;15.20;;
3891;SDS011;1961;48.194;16.370;2023-06-22T09:43:31;54.40;;;15.07;;
3891;SDS011;1961;48.194;16.370;2023-06-22T09:46:00;52.60;;;13.73;;
3891;SDS011;1961;48.194;16.370;2023-06-22T09:48:27;58.80;;;13.90;;
3891;SDS011;1961;48.194;16.370;2023-06-22T09:50:55;51.30;;;13.97;;
3891;SDS011;1961;48.194;16.370;2023-06-22T09:53:22;55.20;;;15.10;;
3891;SDS011;1961;48.194;16.370;2023-06-22T09:55:48;48.90;;;12.53;;
3891;SDS011;1961;48.194;16.370;2023-06-22T09:58:14;52.80;;;13.73;;
3891;SDS011;1961;48.194;16.370;2023-06-22T10:00:40;53.40;;;13.47;;
3891;SDS011;1961;48.194;16.370;2023-06-22T10:03:07;55.93;;;13.37;;
3891;SDS011;1961;48.194;16.370;2023-06-22T10:05:33;51.00;;;13.37;;
3891;SDS011;1961;48.194;16.370;2023-06-22T10:07:59;53.50;;;13.30;;
3891;SDS011;1961;48.194;16.370;2023-06-22T10:10:25;51.70;;;12.87;;
3891;SDS011;1961;48.194;16.370;2023-06-22T10:12:55;53.13;;;13.53;;
3891;SDS011;1961;48.194;16.370;2023-06-22T10:15:22;52.10;;;13.00;;
3891;SDS011;1961;48.194;16.370;2023-06-22T10:17:49;51.93;;;12.40;;
3891;SDS011;1961;48.194;16.370;2023-06-22T10:20:15;48.70;;;12.03;;
3891;SDS011;1961;48.194;16.370;2023-06-22T10:22:44;51.87;;;12.17;;
3891;SDS011;1961;48.194;16.370;2023-06-22T10:25:11;49.50;;;11.30;;
3891;SDS011;1961;48.194;16.370;2023-06-22T10:27:38;49.53;;;11.37;;
3891;SDS011;1961;48.194;16.370;2023-06-22T10:30:10;46.40;;;9.03;;
3891;SDS011;1961;48.194;16.370;2023-06-22T10:32:38;46.13;;;9.33;;
3891;SDS011;1961;48.194;16.370;2023-06-22T10:35:05;46.73;;;9.40;;
3891;SDS011;1961;48.194;16.370;2023-06-22T10:37:31;46.70;;;9.57;;
3891;SDS011;1961;48.194;16.370;2023-06-22T10:39:57;47.00;;;9.03;;
3891;SDS011;1961;48.194;16.370;2023-06-22T10:42:24;46.90;;;9.20;;
3891;SDS011;1961;48.194;16.370;2023-06-22T10:44:50;73.63;;;38.47;;
3891;SDS011;1961;48.194;16.370;2023-06-22T10:47:16;49.80;;;9.27;;
3891;SDS011;1961;48.194;16.370;2023-06-22T10:49:43;58.23;;;9.83;;
3891;SDS011;1961;48.194;16.370;2023-06-22T10:52:09;52.23;;;14.43;;
3891;SDS011;1961;48.194;16.370;2023-06-22T10:54:35;47.13;;;8.30;;
3891;SDS011;1961;48.194;16.370;2023-06-22T10:57:02;48.13;;;8.60;;
3891;SDS011;1961;48.194;16.370;2023-06-22T10:59:29;49.17;;;8.37;;
3891;SDS011;1961;48.194;16.370;2023-06-22T11:01:55;46.43;;;8.63;;
3891;SDS011;1961;48.194;16.370;2023-06-22T11:04:23;48.87;;;9.40;;
3891;SDS011;1961;48.194;16.370;2023-06-22T11:06:49;52.83;;;8.60;;
3891;SDS011;1961;48.194;16.370;2023-06-22T11:09:16;47.30;;;9.20;;
3891;SDS011;1961;48.194;16.370;2023-06-22T11:11:46;46.97;;;9.50;;
3891;SDS011;1961;48.194;16.370;2023-06-22T11:14:12;50.40;;;10.03;;
3891;SDS011;1961;48.194;16.370;2023-06-22T11:16:38;52.67;;;10.77;;
3891;SDS011;1961;48.194;16.370;2023-06-22T11:19:05;47.73;;;10.20;;
3891;SDS011;1961;48.194;16.370;2023-06-22T11:21:32;50.50;;;10.60;;
3891;SDS011;1961;48.194;16.370;2023-06-22T11:23:58;50.90;;;11.07;;
3891;SDS011;1961;48.194;16.370;2023-06-22T11:26:25;54.03;;;12.30;;
3891;SDS011;1961;48.194;16.370;2023-06-22T11:28:55;57.23;;;11.93;;
3891;SDS011;1961;48.194;16.370;2023-06-22T11:31:21;49.07;;;11.80;;
3891;SDS011;1961;48.194;16.370;2023-06-22T11:33:47;52.93;;;12.17;;
3891;SDS011;1961;48.194;16.370;2023-06-22T11:36:14;48.73;;;10.80;;
3891;SDS011;1961;48.194;16.370;2023-06-22T11:38:40;53.63;;;11.40;;
3891;SDS011;1961;48.194;16.370;2023-06-22T11:41:07;49.93;;;10.70;;
3891;SDS011;1961;48.194;16.370;2023-06-22T11:43:34;50.07;;;9.30;;
3891;SDS011;1961;48.194;16.370;2023-06-22T11:46:01;49.30;;;10.13;;
3891;SDS011;1961;48.194;16.370;2023-06-22T11:48:28;47.87;;;9.90;;
3891;SDS011;1961;48.194;16.370;2023-06-22T11:50:54;49.77;;;9.03;;
3891;SDS011;1961;48.194;16.370;2023-06-22T11:53:21;49.27;;;9.87;;
3891;SDS011;1961;48.194;16.370;2023-06-22T11:55:47;48.20;;;9.93;;
3891;SDS011;1961;48.194;16.370;2023-06-22T11:58:14;52.47;;;9.60;;
3891;SDS011;1961;48.194;16.370;2023-06-22T12:00:40;50.10;;;9.63;;
3891;SDS011;1961;48.194;16.370;2023-06-22T12:03:07;48.83;;;10.10;;
3891;SDS011;1961;48.194;16.370;2023-06-22T12:05:33;48.33;;;9.37;;
3891;SDS011;1961;48.194;16.370;2023-06-22T12:07:59;48.07;;;9.30;;
3891;SDS011;1961;48.194;16.370;2023-06-22T12:10:26;50.70;;;9.80;;
3891;SDS011;1961;48.194;16.370;2023-06-22T12:12:55;47.57;;;9.03;;
3891;SDS011;1961;48.194;16.370;2023-06-22T12:15:22;50.23;;;9.10;;
3891;SDS011;1961;48.194;16.370;2023-06-22T12:17:49;50.90;;;8.67;;
3891;SDS011;1961;48.194;16.370;2023-06-22T12:20:15;48.47;;;9.13;;
3891;SDS011;1961;48.194;16.370;2023-06-22T12:22:41;52.83;;;10.10;;
3891;SDS011;1961;48.194;16.370;2023-06-22T12:25:08;45.90;;;8.70;;
3891;SDS011;1961;48.194;16.370;2023-06-22T12:27:37;46.33;;;8.60;;
3891;SDS011;1961;48.194;16.370;2023-06-22T12:30:04;49.43;;;9.03;;
3891;SDS011;1961;48.194;16.370;2023-06-22T12:32:30;49.70;;;9.00;;
3891;SDS011;1961;48.194;16.370;2023-06-22T12:34:56;49.33;;;8.63;;
3891;SDS011;1961;48.194;16.370;2023-06-22T12:37:23;48.33;;;8.47;;
3891;SDS011;1961;48.194;16.370;2023-06-22T12:39:50;52.67;;;9.03;;
3891;SDS011;1961;48.194;16.370;2023-06-22T12:42:16;51.93;;;9.57;;
3891;SDS011;1961;48.194;16.370;2023-06-22T12:44:42;53.07;;;8.30;;
3891;SDS011;1961;48.194;16.370;2023-06-22T12:47:09;50.20;;;9.50;;
3891;SDS011;1961;48.194;16.370;2023-06-22T12:49:36;49.70;;;8.67;;
3891;SDS011;1961;48.194;16.370;2023-06-22T12:52:02;46.23;;;9.87;;
3891;SDS011;1961;48.194;16.370;2023-06-22T12:54:29;49.50;;;9.10;;
3891;SDS011;1961;48.194;16.370;2023-06-22T12:56:55;51.47;;;9.30;;
3891;SDS011;1961;48.194;16.370;2023-06-22T12:59:22;48.47;;;8.77;;
3891;SDS011;1961;48.194;16.370;2023-06-22T13:01:48;45.90;;;8.87;;
3891;SDS011;1961;48.194;16.370;2023-06-22T13:04:14;49.80;;;9.50;;
3891;SDS011;1961;48.194;16.370;2023-06-22T13:06:41;48.90;;;9.97;;
3891;SDS011;1961;48.194;16.370;2023-06-22T13:09:09;49.93;;;9.50;;
3891;SDS011;1961;48.194;16.370;2023-06-22T13:11:36;49.80;;;10.00;;
3891;SDS011;1961;48.194;16.370;2023-06-22T13:14:02;49.47;;;9.60;;
3891;SDS011;1961;48.194;16.370;2023-06-22T13:16:28;48.87;;;10.10;;
3891;SDS011;1961;48.194;16.370;2023-06-22T13:18:55;49.13;;;9.53;;
3891;SDS011;1961;48.194;16.370;2023-06-22T13:21:21;49.50;;;9.80;;
3891;SDS011;1961;48.194;16.370;2023-06-22T13:23:47;47.70;;;10.00;;
3891;SDS011;1961;48.194;16.370;2023-06-22T13:26:13;49.10;;;10.57;;
3891;SDS011;1961;48.194;16.370;2023-06-22T13:28:39;46.00;;;9.57;;
3891;SDS011;1961;48.194;16.370;2023-06-22T13:31:05;52.50;;;10.43;;
3891;SDS011;1961;48.194;16.370;2023-06-22T13:33:32;50.83;;;9.60;;
3891;SDS011;1961;48.194;16.370;2023-06-22T13:35:58;48.00;;;9.50;;
3891;SDS011;1961;48.194;16.370;2023-06-22T13:38:24;50.63;;;9.97;;
3891;SDS011;1961;48.194;16.370;2023-06-22T13:40:51;49.00;;;9.90;;
3891;SDS011;1961;48.194;16.370;2023-06-22T13:43:17;50.37;;;10.20;;
3891;SDS011;1961;48.194;16.370;2023-06-22T13:45:43;49.13;;;10.40;;
3891;SDS011;1961;48.194;16.370;2023-06-22T13:48:09;48.53;;;9.50;;
3891;SDS011;1961;48.194;16.370;2023-06-22T13:50:36;51.13;;;9.67;;
3891;SDS011;1961;48.194;16.370;2023-06-22T13:53:02;50.97;;;9.80;;
3891;SDS011;1961;48.194;16.370;2023-06-22T13:55:28;50.77;;;10.20;;
3891;SDS011;1961;48.194;16.370;2023-06-22T13:57:56;48.47;;;9.93;;
3891;SDS011;1961;48.194;16.370;2023-06-22T14:00:22;46.97;;;10.03;;
3891;SDS011;1961;48.194;16.370;2023-06-22T14:02:48;46.77;;;10.13;;
3891;SDS011;1961;48.194;16.370;2023-06-22T14:05:14;51.77;;;10.60;;
3891;SDS011;1961;48.194;16.370;2023-06-22T14:07:41;47.10;;;10.63;;
3891;SDS011;1961;48.194;16.370;2023-06-22T14:10:07;50.93;;;10.27;;
3891;SDS011;1961;48.194;16.370;2023-06-22T14:12:33;48.33;;;10.23;;
3891;SDS011;1961;48.194;16.370;2023-06-22T14:15:00;47.30;;;10.03;;
3891;SDS011;1961;48.194;16.370;2023-06-22T14:17:26;50.53;;;10.60;;
3891;SDS011;1961;48.194;16.370;2023-06-22T14:19:52;51.60;;;9.57;;
3891;SDS011;1961;48.194;16.370;2023-06-22T14:22:19;48.00;;;10.50;;
3891;SDS011;1961;48.194;16.370;2023-06-22T14:24:45;47.47;;;9.13;;
3891;SDS011;1961;48.194;16.370;2023-06-22T14:27:11;59.47;;;10.80;;
3891;SDS011;1961;48.194;16.370;2023-06-22T14:29:37;51.50;;;10.20;;
3891;SDS011;1961;48.194;16.370;2023-06-22T14:32:04;52.20;;;10.17;;
3891;SDS011;1961;48.194;16.370;2023-06-22T14:34:31;49.37;;;10.27;;
3891;SDS011;1961;48.194;16.370;2023-06-22T14:36:58;52.00;;;11.50;;
3891;SDS011;1961;48.194;16.370;2023-06-22T14:39:24;60.00;;;11.27;;
3891;SDS011;1961;48.194;16.370;2023-06-22T14:41:50;51.60;;;10.70;;
3891;SDS011;1961;48.194;16.370;2023-06-22T14:44:16;48.57;;;9.97;;
3891;SDS011;1961;48.194;16.370;2023-06-22T14:46:43;47.47;;;10.90;;
3891;SDS011;1961;48.194;16.370;2023-06-22T14:49:09;51.47;;;10.63;;
3891;SDS011;1961;48.194;16.370;2023-06-22T14:51:35;49.10;;;10.60;;